createdAt,value
2019-03-22T00:00:51.763Z,100.00
2019-03-22T00:03:21.761Z,100.00
2019-03-22T00:05:51.910Z,100.00
2019-03-22T00:08:22.051Z,100.00
2019-03-22T00:10:52.241Z,100.00
2019-03-22T00:13:22.311Z,100.00
2019-03-22T00:15:52.414Z,100.00
2019-03-22T00:18:22.311Z,100.00
2019-03-22T00:20:52.479Z,100.00
2019-03-22T00:23:22.440Z,100.00
2019-03-22T00:25:52.475Z,100.00
2019-03-22T00:28:22.564Z,100.00
2019-03-22T00:30:52.513Z,100.00
2019-03-22T00:33:22.663Z,100.00
2019-03-22T00:35:52.538Z,100.00
2019-03-22T00:38:22.665Z,100.00
2019-03-22T00:40:52.722Z,100.00
2019-03-22T00:43:22.911Z,100.00
2019-03-22T00:45:52.981Z,100.00
2019-03-22T00:48:24.953Z,100.00
2019-03-22T00:50:54.858Z,100.00
2019-03-22T00:53:25.029Z,100.00
2019-03-22T00:55:55.030Z,100.00
2019-03-22T00:58:25.012Z,100.00
2019-03-22T01:00:55.068Z,100.00
2019-03-22T01:03:25.229Z,100.00
2019-03-22T01:05:55.669Z,100.00
2019-03-22T01:08:25.751Z,100.00
2019-03-22T01:10:55.990Z,100.00
2019-03-22T01:13:26.872Z,100.00
2019-03-22T01:15:56.806Z,100.00
2019-03-22T01:18:27.304Z,100.00
2019-03-22T01:20:57.373Z,100.00
2019-03-22T01:23:27.312Z,100.00
2019-03-22T01:25:57.431Z,100.00
2019-03-22T01:28:27.528Z,100.00
2019-03-22T01:30:59.851Z,100.00
2019-03-22T01:33:30.109Z,100.00
2019-03-22T01:36:00.176Z,100.00
2019-03-22T01:38:30.291Z,100.00
2019-03-22T01:41:00.448Z,100.00
2019-03-22T01:43:30.642Z,100.00
2019-03-22T01:46:00.554Z,100.00
2019-03-22T01:48:33.084Z,100.00
2019-03-22T01:51:03.142Z,100.00
2019-03-22T01:53:33.328Z,100.00
2019-03-22T01:56:03.406Z,100.00
2019-03-22T01:58:35.945Z,100.00
2019-03-22T02:01:05.975Z,100.00
2019-03-22T02:03:36.084Z,100.00
2019-03-22T02:06:06.190Z,100.00
2019-03-22T02:08:36.225Z,100.00
2019-03-22T02:11:06.213Z,100.00
2019-03-22T02:13:36.433Z,100.00
2019-03-22T02:16:06.529Z,100.00
2019-03-22T02:18:36.605Z,100.00
2019-03-22T02:21:06.650Z,100.00
2019-03-22T02:23:36.674Z,100.00
2019-03-22T02:26:06.841Z,100.00
2019-03-22T02:28:36.988Z,100.00
2019-03-22T02:31:06.926Z,100.00
2019-03-22T02:33:36.941Z,100.00
2019-03-22T02:36:07.075Z,100.00
2019-03-22T02:38:37.073Z,100.00
2019-03-22T02:41:07.185Z,100.00
2019-03-22T02:43:37.226Z,100.00
2019-03-22T02:46:07.292Z,100.00
2019-03-22T02:48:37.293Z,100.00
2019-03-22T02:51:07.364Z,100.00
2019-03-22T02:53:37.358Z,100.00
2019-03-22T02:56:07.510Z,100.00
2019-03-22T02:58:37.585Z,100.00
2019-03-22T03:01:07.487Z,100.00
2019-03-22T03:03:37.492Z,100.00
2019-03-22T03:06:07.381Z,100.00
2019-03-22T03:08:37.350Z,100.00
2019-03-22T03:11:07.362Z,100.00
2019-03-22T03:13:37.471Z,100.00
2019-03-22T03:16:07.469Z,100.00
2019-03-22T03:18:37.387Z,100.00
2019-03-22T03:21:07.411Z,100.00
2019-03-22T03:23:37.383Z,100.00
2019-03-22T03:26:08.110Z,100.00
2019-03-22T03:28:38.044Z,100.00
2019-03-22T03:31:08.086Z,100.00
2019-03-22T03:33:38.142Z,100.00
2019-03-22T03:36:08.013Z,100.00
2019-03-22T03:38:37.961Z,100.00
2019-03-22T03:41:09.597Z,100.00
2019-03-22T03:43:40.097Z,100.00
2019-03-22T03:46:10.141Z,100.00
2019-03-22T03:48:40.080Z,100.00
2019-03-22T03:51:10.088Z,100.00
2019-03-22T03:53:40.082Z,100.00
2019-03-22T03:56:10.083Z,100.00
2019-03-22T03:58:51.524Z,100.00
2019-03-22T04:01:11.863Z,100.00
2019-03-22T04:03:41.840Z,100.00
2019-03-22T04:06:11.861Z,100.00
2019-03-22T04:08:41.790Z,100.00
2019-03-22T04:11:11.671Z,100.00
2019-03-22T04:13:41.823Z,100.00
2019-03-22T04:16:11.830Z,100.00
2019-03-22T04:18:41.887Z,100.00
2019-03-22T04:21:11.934Z,100.00
2019-03-22T04:23:41.965Z,100.00
2019-03-22T04:26:12.032Z,100.00
2019-03-22T04:28:42.124Z,100.00
2019-03-22T04:31:12.093Z,100.00
2019-03-22T04:33:42.115Z,100.00
2019-03-22T04:36:14.361Z,100.00
2019-03-22T04:38:44.359Z,100.00
2019-03-22T04:41:14.393Z,100.00
2019-03-22T04:43:44.328Z,100.00
2019-03-22T04:46:15.353Z,100.00
2019-03-22T04:48:45.720Z,100.00
2019-03-22T04:51:15.989Z,100.00
2019-03-22T04:53:51.319Z,100.00
2019-03-22T04:56:22.674Z,100.00
2019-03-22T04:58:53.819Z,100.00
2019-03-22T05:01:24.464Z,100.00
2019-03-22T05:03:54.953Z,100.00
2019-03-22T05:06:25.075Z,100.00
2019-03-22T05:08:56.772Z,100.00
2019-03-22T05:11:27.062Z,100.00
2019-03-22T05:13:58.595Z,100.00
2019-03-22T05:16:29.103Z,100.00
2019-03-22T05:19:00.699Z,100.00
2019-03-22T05:21:31.111Z,100.00
2019-03-22T05:24:03.382Z,100.00
2019-03-22T05:26:34.642Z,100.00
2019-03-22T05:29:05.684Z,100.00
2019-03-22T05:32:07.483Z,100.00
2019-03-22T05:34:37.569Z,100.00
2019-03-22T05:37:07.592Z,100.00
2019-03-22T05:39:37.653Z,100.00
2019-03-22T05:42:07.847Z,100.00
2019-03-22T05:44:37.939Z,100.00
2019-03-22T05:47:08.048Z,100.00
2019-03-22T05:49:38.045Z,100.00
2019-03-22T05:52:08.200Z,100.00
2019-03-22T05:54:38.171Z,100.00
2019-03-22T05:57:13.364Z,100.00
2019-03-22T05:59:42.918Z,100.00
2019-03-22T06:02:11.812Z,100.00
2019-03-22T06:04:41.957Z,100.00
2019-03-22T06:07:11.952Z,100.00
2019-03-22T06:09:42.055Z,100.00
2019-03-22T06:12:12.115Z,100.00
2019-03-22T06:14:42.192Z,100.00
2019-03-22T06:17:12.276Z,100.00
2019-03-22T06:19:42.250Z,100.00
2019-03-22T06:22:12.300Z,100.00
2019-03-22T06:24:42.315Z,100.00
2019-03-22T06:27:12.323Z,100.00
2019-03-22T06:29:53.317Z,100.00
2019-03-22T06:32:14.292Z,100.00
2019-03-22T06:34:44.242Z,100.00
2019-03-22T06:37:14.306Z,100.00
2019-03-22T06:39:44.268Z,100.00
2019-03-22T06:42:14.262Z,100.00
2019-03-22T06:44:44.409Z,100.00
2019-03-22T06:47:14.399Z,100.00
2019-03-22T06:49:44.359Z,100.00
2019-03-22T06:52:14.426Z,100.00
2019-03-22T06:54:44.346Z,100.00
2019-03-22T06:57:14.378Z,100.00
2019-03-22T06:59:44.383Z,100.00
2019-03-22T07:02:14.537Z,100.00
2019-03-22T07:04:44.608Z,100.00
2019-03-22T07:07:14.710Z,100.00
2019-03-22T07:09:44.812Z,100.00
2019-03-22T07:12:14.868Z,100.00
2019-03-22T07:14:44.987Z,100.00
2019-03-22T07:17:15.104Z,100.00
2019-03-22T07:19:45.197Z,100.00
2019-03-22T07:22:15.348Z,100.00
2019-03-22T07:24:45.338Z,100.00
2019-03-22T07:27:15.512Z,100.00
2019-03-22T07:29:45.602Z,100.00
2019-03-22T07:32:15.729Z,100.00
2019-03-22T07:34:45.788Z,100.00
2019-03-22T07:37:15.892Z,100.00
2019-03-22T07:39:46.042Z,100.00
2019-03-22T07:42:17.574Z,100.00
2019-03-22T07:44:47.844Z,100.00
2019-03-22T07:47:18.004Z,100.00
2019-03-22T07:49:48.169Z,100.00
2019-03-22T07:52:18.125Z,100.00
2019-03-22T07:54:48.185Z,100.00
2019-03-22T07:57:18.250Z,100.00
2019-03-22T07:59:48.283Z,100.00
2019-03-22T08:02:20.522Z,100.00
2019-03-22T08:04:50.619Z,100.00
2019-03-22T08:07:20.737Z,100.00
2019-03-22T08:09:51.374Z,100.00
2019-03-22T08:12:21.730Z,100.00
2019-03-22T08:14:51.686Z,100.00
2019-03-22T08:17:21.915Z,100.00
2019-03-22T08:19:52.012Z,100.00
2019-03-22T08:22:22.070Z,100.00
2019-03-22T08:24:52.904Z,100.00
2019-03-22T08:27:23.059Z,100.00
2019-03-22T08:29:53.115Z,100.00
2019-03-22T08:32:23.185Z,100.00
2019-03-22T08:34:53.347Z,100.00
2019-03-22T08:37:23.601Z,100.00
2019-03-22T08:39:55.940Z,100.00
2019-03-22T08:42:25.574Z,100.00
2019-03-22T08:44:55.692Z,100.00
2019-03-22T08:47:33.658Z,100.00
2019-03-22T08:49:57.469Z,100.00
2019-03-22T08:52:27.615Z,100.00
2019-03-22T08:54:57.574Z,100.00
2019-03-22T08:57:27.668Z,100.00
2019-03-22T08:59:57.704Z,100.00
2019-03-22T09:02:27.662Z,100.00
2019-03-22T09:04:57.984Z,100.00
2019-03-22T09:07:28.038Z,100.00
2019-03-22T09:09:57.981Z,100.00
2019-03-22T09:12:27.986Z,100.00
2019-03-22T09:14:59.239Z,100.00
2019-03-22T09:17:29.418Z,100.00
2019-03-22T09:19:59.513Z,100.00
2019-03-22T09:22:29.574Z,100.00
2019-03-22T09:24:59.652Z,100.00
2019-03-22T09:27:29.669Z,100.00
2019-03-22T09:29:59.668Z,100.00
2019-03-22T09:32:29.776Z,100.00
2019-03-22T09:34:59.939Z,100.00
2019-03-22T09:37:30.090Z,100.00
2019-03-22T09:40:00.481Z,100.00
2019-03-22T09:42:30.480Z,100.00
2019-03-22T09:45:00.516Z,100.00
2019-03-22T09:47:30.568Z,100.00
2019-03-22T09:50:00.650Z,100.00
2019-03-22T09:52:33.573Z,100.00
2019-03-22T09:55:12.475Z,100.00
2019-03-22T09:57:34.175Z,100.00
2019-03-22T10:00:04.610Z,100.00
2019-03-22T10:02:34.752Z,100.00
2019-03-22T10:05:07.960Z,100.00
2019-03-22T10:07:38.139Z,100.00
2019-03-22T10:10:08.211Z,100.00
2019-03-22T10:12:38.265Z,98.86
2019-03-22T10:15:08.408Z,99.06
2019-03-22T10:17:38.485Z,98.07
2019-03-22T10:20:08.729Z,98.64
2019-03-22T10:22:38.717Z,97.82
2019-03-22T10:25:08.854Z,97.58
2019-03-22T10:27:38.887Z,97.40
2019-03-22T10:30:09.210Z,96.88
2019-03-22T10:32:39.547Z,96.88
2019-03-22T10:35:10.224Z,95.34
2019-03-22T10:37:40.543Z,94.39
2019-03-22T10:40:10.567Z,94.79
2019-03-22T10:42:40.678Z,93.08
2019-03-22T10:45:11.615Z,93.75
2019-03-22T10:47:41.551Z,91.69
2019-03-22T10:50:11.629Z,90.88
2019-03-22T10:52:41.646Z,89.62
2019-03-22T10:55:28.586Z,88.29
2019-03-22T10:57:43.560Z,87.27
2019-03-22T11:00:16.754Z,87.68
2019-03-22T11:02:47.090Z,86.32
2019-03-22T11:05:17.434Z,85.26
2019-03-22T11:07:47.415Z,84.02
2019-03-22T11:10:17.425Z,82.66
2019-03-22T11:12:47.545Z,73.21
2019-03-22T11:15:18.055Z,66.69
2019-03-22T11:17:48.126Z,67.07
2019-03-22T11:20:18.205Z,66.37
2019-03-22T11:22:48.310Z,59.70
2019-03-22T11:25:18.405Z,61.60
2019-03-22T11:27:48.580Z,61.85
2019-03-22T11:30:22.042Z,60.28
2019-03-22T11:32:52.151Z,60.68
2019-03-22T11:35:22.289Z,60.27
2019-03-22T11:37:52.206Z,58.76
2019-03-22T11:40:22.139Z,55.24
2019-03-22T11:42:52.308Z,54.32
2019-03-22T11:45:24.497Z,54.08
2019-03-22T11:47:54.582Z,53.70
2019-03-22T11:50:24.684Z,52.98
2019-03-22T11:52:54.764Z,53.10
2019-03-22T11:55:24.779Z,52.90
2019-03-22T11:57:54.967Z,52.98
2019-03-22T12:00:25.149Z,52.73
2019-03-22T12:02:55.229Z,52.27
2019-03-22T12:05:25.412Z,52.05
2019-03-22T12:07:55.460Z,51.81
2019-03-22T12:10:25.650Z,51.87
2019-03-22T12:12:55.835Z,51.41
2019-03-22T12:15:26.371Z,51.80
2019-03-22T12:17:56.470Z,50.96
2019-03-22T12:20:26.648Z,50.95
2019-03-22T12:22:56.775Z,50.99
2019-03-22T12:25:27.024Z,50.89
2019-03-22T12:27:57.151Z,50.46
2019-03-22T12:30:27.117Z,49.39
2019-03-22T12:32:57.148Z,49.04
2019-03-22T12:35:27.314Z,47.09
2019-03-22T12:37:57.823Z,46.98
2019-03-22T12:40:27.980Z,47.18
2019-03-22T12:42:58.028Z,44.78
2019-03-22T12:45:28.449Z,45.83
2019-03-22T12:47:58.498Z,46.06
2019-03-22T12:50:28.964Z,45.75
2019-03-22T12:52:59.143Z,45.77
2019-03-22T12:55:29.288Z,45.50
2019-03-22T12:57:59.583Z,44.75
2019-03-22T13:00:29.747Z,43.86
2019-03-22T13:02:59.730Z,43.70
2019-03-22T13:05:29.861Z,43.97
2019-03-22T13:07:59.876Z,42.49
2019-03-22T13:10:30.247Z,41.54
2019-03-22T13:13:00.192Z,40.59
2019-03-22T13:15:30.272Z,40.93
2019-03-22T13:18:00.189Z,41.28
2019-03-22T13:20:30.332Z,40.44
2019-03-22T13:23:00.369Z,39.09
2019-03-22T13:25:30.546Z,39.00
2019-03-22T13:28:00.693Z,38.35
2019-03-22T13:30:34.995Z,39.05
2019-03-22T13:33:05.248Z,38.68
2019-03-22T13:35:35.306Z,36.33
2019-03-22T13:38:05.346Z,29.31
2019-03-22T13:40:35.435Z,28.24
2019-03-22T13:43:05.503Z,26.99
2019-03-22T13:45:35.600Z,26.04
2019-03-22T13:48:05.743Z,24.85
2019-03-22T13:50:36.652Z,22.39
2019-03-22T13:53:06.684Z,22.20
2019-03-22T13:55:36.848Z,22.27
2019-03-22T13:58:06.866Z,21.94
2019-03-22T14:00:36.963Z,21.83
2019-03-22T14:03:07.147Z,21.19
2019-03-22T14:05:37.134Z,20.74
2019-03-22T14:08:07.238Z,20.00
2019-03-22T14:10:37.376Z,19.97
2019-03-22T14:13:07.930Z,18.90
2019-03-22T14:15:37.981Z,18.28
2019-03-22T14:18:08.128Z,17.26
2019-03-22T14:20:38.108Z,17.26
2019-03-22T14:23:08.089Z,17.62
2019-03-22T14:25:38.048Z,16.61
2019-03-22T14:28:08.028Z,17.20
2019-03-22T14:30:38.021Z,16.79
2019-03-22T14:33:13.343Z,17.45
2019-03-22T14:35:39.913Z,16.85
2019-03-22T14:38:09.893Z,16.88
2019-03-22T14:40:39.894Z,16.32
2019-03-22T14:57:58.417Z,15.44
2019-03-22T15:00:28.494Z,16.06
2019-03-22T15:02:58.439Z,16.41
2019-03-22T15:05:28.246Z,16.77
2019-03-22T15:07:58.666Z,16.84
2019-03-22T15:10:28.484Z,16.90
2019-03-22T15:12:58.715Z,16.56
2019-03-22T15:16:05.946Z,17.57
2019-03-22T15:18:58.224Z,17.60
2019-03-22T15:21:52.941Z,17.36
2019-03-22T15:24:33.066Z,16.53
2019-03-22T15:27:20.504Z,16.72
2019-03-22T15:30:21.398Z,16.66
2019-03-22T15:33:04.576Z,15.89
2019-03-22T15:35:52.441Z,15.67
2019-03-22T15:38:50.689Z,15.87
2019-03-22T15:41:20.785Z,15.48
2019-03-22T15:43:50.660Z,15.72
2019-03-22T15:46:20.528Z,16.21
2019-03-22T15:48:50.628Z,15.28
2019-03-22T15:51:20.540Z,14.43
2019-03-22T15:53:50.554Z,15.39
2019-03-22T15:56:20.391Z,17.34
2019-03-22T15:58:50.321Z,17.66
2019-03-22T16:01:20.314Z,17.93
2019-03-22T16:03:50.180Z,18.31
2019-03-22T16:06:20.096Z,18.45
2019-03-22T16:08:49.937Z,18.31
2019-03-22T16:11:19.960Z,18.70
2019-03-22T16:13:49.974Z,18.62
2019-03-22T16:16:40.843Z,19.29
2019-03-22T16:19:10.807Z,20.27
2019-03-22T16:21:40.829Z,21.71
2019-03-22T16:24:11.887Z,23.19
2019-03-22T16:26:41.771Z,24.32
2019-03-22T16:29:12.911Z,24.84
2019-03-22T16:31:42.923Z,25.34
2019-03-22T16:34:12.860Z,25.78
2019-03-22T16:36:42.826Z,26.22
2019-03-22T16:39:12.826Z,26.83
2019-03-22T16:41:42.786Z,27.28
2019-03-22T16:44:12.692Z,28.08
2019-03-22T16:46:42.583Z,28.48
2019-03-22T16:49:14.511Z,29.53
2019-03-22T16:51:44.512Z,30.42
2019-03-22T16:54:14.483Z,31.21
2019-03-22T16:56:44.354Z,31.87
2019-03-22T16:59:14.714Z,32.93
2019-03-22T17:01:44.786Z,33.84
2019-03-22T17:04:14.870Z,34.55
2019-03-22T17:06:44.872Z,35.33
2019-03-22T17:09:15.023Z,36.25
2019-03-22T17:11:45.387Z,37.29
2019-03-22T17:14:15.360Z,38.32
2019-03-22T17:16:46.304Z,39.40
2019-03-22T17:19:17.388Z,40.51
2019-03-22T17:21:47.863Z,41.64
2019-03-22T17:24:17.900Z,42.84
2019-03-22T17:26:47.775Z,43.98
2019-03-22T17:29:17.967Z,44.97
2019-03-22T17:31:47.929Z,45.97
2019-03-22T17:34:18.010Z,46.76
2019-03-22T17:36:48.043Z,47.59
2019-03-22T17:39:18.166Z,48.40
2019-03-22T17:41:48.105Z,49.18
2019-03-22T17:44:18.184Z,49.76
2019-03-22T17:46:49.301Z,50.35
2019-03-22T17:49:19.283Z,51.01
2019-03-22T17:51:49.315Z,51.76
2019-03-22T17:54:19.181Z,52.44
2019-03-22T17:56:53.779Z,53.13
2019-03-22T17:59:29.926Z,53.84
2019-03-22T18:02:00.109Z,54.52
2019-03-22T18:04:30.123Z,55.30
2019-03-22T18:07:00.130Z,55.90
2019-03-22T18:09:30.474Z,56.52
2019-03-22T18:12:00.868Z,57.00
2019-03-22T18:14:30.941Z,57.45
2019-03-22T18:17:01.116Z,58.20
2019-03-22T18:19:31.125Z,58.89
2019-03-22T18:22:01.262Z,59.30
2019-03-22T18:24:31.346Z,59.78
2019-03-22T18:27:01.549Z,60.23
2019-03-22T18:29:31.657Z,60.67
2019-03-22T18:32:01.836Z,61.05
2019-03-22T18:34:34.526Z,61.52
2019-03-22T18:37:04.027Z,62.11
2019-03-22T18:39:34.206Z,62.68
2019-03-22T18:42:04.459Z,63.11
2019-03-22T18:44:34.700Z,63.64
2019-03-22T18:47:04.957Z,64.25
2019-03-22T18:49:35.337Z,64.77
2019-03-22T18:52:05.572Z,65.32
2019-03-22T18:54:35.927Z,65.95
2019-03-22T18:57:06.972Z,66.43
2019-03-22T18:59:37.249Z,66.81
2019-03-22T19:02:07.437Z,67.17
2019-03-22T19:04:43.886Z,67.75
2019-03-22T19:07:10.522Z,68.19
2019-03-22T19:09:40.941Z,68.54
2019-03-22T19:12:11.172Z,69.21
2019-03-22T19:14:41.377Z,69.49
2019-03-22T19:17:11.461Z,69.99
2019-03-22T19:19:41.760Z,70.88
2019-03-22T19:22:11.980Z,71.13
2019-03-22T19:24:42.540Z,71.73
2019-03-22T19:27:17.227Z,72.42
2019-03-22T19:29:48.506Z,72.37
2019-03-22T19:32:18.619Z,72.56
2019-03-22T19:34:54.309Z,72.72
2019-03-22T19:37:21.518Z,73.40
2019-03-22T19:39:51.666Z,73.55
2019-03-22T19:42:21.845Z,74.14
2019-03-22T19:44:52.097Z,74.15
2019-03-22T19:47:22.292Z,74.34
2019-03-22T19:49:52.601Z,74.58
2019-03-22T19:52:23.415Z,74.42
2019-03-22T19:54:53.735Z,74.54
2019-03-22T19:57:23.950Z,75.11
2019-03-22T19:59:54.191Z,75.30
2019-03-22T20:02:24.425Z,75.46
2019-03-22T20:05:04.227Z,75.82
2019-03-22T20:07:27.203Z,76.31
2019-03-22T20:09:57.582Z,76.43
2019-03-22T20:12:27.823Z,76.95
2019-03-22T20:14:57.977Z,77.05
2019-03-22T20:17:28.207Z,77.27
2019-03-22T20:19:58.521Z,77.47
2019-03-22T20:22:28.750Z,77.57
2019-03-22T20:24:58.897Z,77.92
2019-03-22T20:27:29.178Z,78.24
2019-03-22T20:29:59.277Z,78.70
2019-03-22T20:32:29.506Z,78.83
2019-03-22T20:34:59.722Z,79.10
2019-03-22T20:37:31.211Z,79.47
2019-03-22T20:40:01.443Z,79.68
2019-03-22T20:42:31.678Z,79.93
2019-03-22T20:45:01.758Z,80.45
2019-03-22T20:47:31.966Z,80.57
2019-03-22T20:50:02.288Z,80.74
2019-03-22T20:52:32.561Z,81.10
2019-03-22T20:55:02.823Z,81.34
2019-03-22T20:57:33.059Z,81.85
2019-03-22T21:00:03.195Z,82.12
2019-03-22T21:02:33.440Z,82.27
2019-03-22T21:05:03.600Z,82.52
2019-03-22T21:07:33.829Z,82.65
2019-03-22T21:10:04.049Z,83.06
2019-03-22T21:12:34.139Z,83.28
2019-03-22T21:15:04.719Z,83.55
2019-03-22T21:17:34.867Z,83.73
2019-03-22T21:20:05.575Z,84.00
2019-03-22T21:22:35.686Z,84.15
2019-03-22T21:25:06.447Z,84.76
2019-03-22T21:27:36.614Z,84.93
2019-03-22T21:30:09.733Z,84.96
2019-03-22T21:32:45.326Z,84.96
2019-03-22T21:35:21.840Z,85.18
2019-03-22T21:37:44.987Z,85.17
2019-03-22T21:40:15.107Z,85.44
2019-03-22T21:42:45.400Z,85.65
2019-03-22T21:45:15.732Z,85.69
2019-03-22T21:47:45.915Z,85.82
2019-03-22T21:50:16.029Z,86.02
2019-03-22T21:52:46.148Z,86.01
2019-03-22T21:55:16.108Z,85.89
2019-03-22T21:57:45.907Z,86.04
2019-03-22T22:00:15.947Z,86.24
2019-03-22T22:02:45.907Z,86.46
2019-03-22T22:05:15.865Z,86.56
2019-03-22T22:07:45.979Z,86.87
2019-03-22T22:10:15.964Z,87.28
2019-03-22T22:12:45.789Z,87.41
2019-03-22T22:15:15.794Z,87.37
2019-03-22T22:17:45.701Z,87.61
2019-03-22T22:20:15.688Z,88.02
2019-03-22T22:22:45.576Z,88.03
2019-03-22T22:25:15.422Z,88.06
2019-03-22T22:27:45.319Z,88.11
2019-03-22T22:30:15.255Z,88.40
2019-03-22T22:32:45.067Z,88.75
2019-03-22T22:35:15.067Z,88.92
2019-03-22T22:37:44.880Z,89.05
2019-03-22T22:40:14.953Z,89.40
2019-03-22T22:42:44.981Z,89.42
2019-03-22T22:45:14.938Z,89.86
2019-03-22T22:47:44.844Z,89.77
2019-03-22T22:50:15.279Z,89.69
2019-03-22T22:52:45.176Z,90.20
2019-03-22T22:55:15.128Z,90.29
2019-03-22T22:57:45.076Z,90.10
2019-03-22T23:00:16.679Z,90.30
2019-03-22T23:02:46.682Z,90.62
2019-03-22T23:05:16.615Z,90.72
2019-03-22T23:07:46.409Z,90.92
2019-03-22T23:10:16.438Z,90.86
2019-03-22T23:12:46.328Z,91.36
2019-03-22T23:15:16.353Z,91.80
2019-03-22T23:17:46.200Z,92.11
2019-03-22T23:20:16.160Z,91.86
2019-03-22T23:22:46.098Z,91.59
2019-03-22T23:25:16.620Z,91.74
2019-03-22T23:27:46.531Z,91.73
2019-03-22T23:30:16.468Z,91.73
2019-03-22T23:32:46.278Z,92.44
2019-03-22T23:35:16.192Z,91.97
2019-03-22T23:37:46.059Z,92.84
2019-03-22T23:40:16.030Z,92.49
2019-03-22T23:42:45.850Z,92.11
2019-03-22T23:45:15.658Z,92.37
2019-03-22T23:47:45.534Z,92.57
2019-03-22T23:50:15.350Z,92.91
2019-03-22T23:52:45.182Z,93.75
2019-03-22T23:55:15.110Z,93.44
2019-03-22T23:57:44.896Z,93.26
